createdAt,value
2023-02-23T00:00:18.953Z,10.40
2023-02-23T00:01:19.997Z,12.70
2023-02-23T00:03:53.057Z,9.50
2023-02-23T00:04:52.396Z,10.30
2023-02-23T00:05:52.410Z,8.10
2023-02-23T00:06:58.473Z,9.10
2023-02-23T00:07:52.345Z,12.10
2023-02-23T00:08:52.344Z,8.50
2023-02-23T00:09:52.309Z,6.70
2023-02-23T00:10:52.304Z,9.70
2023-02-23T00:11:52.331Z,8.10
2023-02-23T00:12:52.301Z,9.10
2023-02-23T00:13:52.273Z,7.60
2023-02-23T00:14:52.260Z,8.00
2023-02-23T00:15:52.248Z,7.00
2023-02-23T00:16:52.242Z,5.80
2023-02-23T00:17:52.261Z,6.50
2023-02-23T00:18:52.293Z,5.50
2023-02-23T00:19:52.201Z,6.30
2023-02-23T00:20:52.197Z,6.90
2023-02-23T00:21:52.190Z,8.90
2023-02-23T00:22:52.187Z,6.70
2023-02-23T00:23:52.167Z,6.60
2023-02-23T00:24:52.152Z,5.90
2023-02-23T00:25:52.143Z,7.50
2023-02-23T00:26:52.136Z,8.10
2023-02-23T00:27:52.135Z,6.10
2023-02-23T00:28:52.115Z,8.20
2023-02-23T00:29:52.102Z,8.20
2023-02-23T00:30:52.116Z,8.90
2023-02-23T00:31:52.260Z,7.10
2023-02-23T00:32:52.081Z,7.40
2023-02-23T00:33:52.067Z,6.50
2023-02-23T00:34:52.068Z,6.50
2023-02-23T00:35:52.054Z,8.90
2023-02-23T00:36:52.089Z,113.00
2023-02-23T00:37:52.036Z,7.50
2023-02-23T00:38:52.017Z,7.00
2023-02-23T00:39:52.073Z,6.00
2023-02-23T00:40:51.991Z,6.30
2023-02-23T00:41:51.982Z,7.60
2023-02-23T00:42:51.989Z,8.00
2023-02-23T00:43:51.965Z,9.00
2023-02-23T00:44:51.955Z,10.90
2023-02-23T00:45:52.015Z,8.10
2023-02-23T00:46:52.307Z,8.10
2023-02-23T00:47:51.927Z,7.20
2023-02-23T00:48:51.927Z,6.30
2023-02-23T00:49:51.895Z,6.40
2023-02-23T00:50:51.886Z,6.80
2023-02-23T00:51:51.877Z,5.20
2023-02-23T00:52:51.867Z,8.00
2023-02-23T00:53:51.863Z,6.90
2023-02-23T00:54:51.868Z,7.00
2023-02-23T00:55:51.848Z,5.50
2023-02-23T00:56:51.828Z,6.30
2023-02-23T00:57:51.811Z,8.90
2023-02-23T00:58:51.822Z,9.10
2023-02-23T00:59:51.829Z,7.10
2023-02-23T01:00:51.786Z,7.80
2023-02-23T01:01:51.798Z,14.00
2023-02-23T01:02:51.768Z,6.70
2023-02-23T01:03:51.755Z,10.20
2023-02-23T01:04:51.738Z,10.10
2023-02-23T01:05:51.718Z,8.10
2023-02-23T01:06:51.714Z,9.30
2023-02-23T01:07:51.704Z,8.90
2023-02-23T01:08:51.700Z,8.60
2023-02-23T01:09:51.700Z,8.00
2023-02-23T01:10:51.707Z,9.30
2023-02-23T01:11:51.655Z,9.30
2023-02-23T01:12:51.670Z,8.00
2023-02-23T01:13:51.654Z,7.20
2023-02-23T01:14:51.626Z,8.00
2023-02-23T01:15:51.671Z,8.50
2023-02-23T01:16:51.647Z,8.20
2023-02-23T01:17:51.608Z,8.90
2023-02-23T01:18:51.600Z,9.00
2023-02-23T01:19:51.570Z,7.90
2023-02-23T01:20:51.565Z,7.60
2023-02-23T01:21:51.550Z,8.80
2023-02-23T01:22:51.539Z,7.90
2023-02-23T01:23:51.544Z,9.40
2023-02-23T01:24:51.529Z,8.20
2023-02-23T01:25:51.513Z,8.30
2023-02-23T01:26:51.506Z,9.20
2023-02-23T01:27:51.479Z,9.80
2023-02-23T01:28:51.493Z,11.30
2023-02-23T01:29:51.468Z,7.90
2023-02-23T01:30:51.537Z,7.60
2023-02-23T01:31:51.561Z,6.50
2023-02-23T01:32:51.436Z,7.60
2023-02-23T01:33:51.434Z,7.70
2023-02-23T01:34:51.416Z,9.30
2023-02-23T01:35:51.402Z,8.80
2023-02-23T01:36:51.395Z,9.40
2023-02-23T01:37:51.375Z,10.20
2023-02-23T01:38:51.383Z,9.10
2023-02-23T01:39:51.370Z,9.20
2023-02-23T01:40:51.360Z,12.00
2023-02-23T01:41:51.345Z,12.70
2023-02-23T01:42:51.322Z,9.00
2023-02-23T01:43:51.388Z,7.60
2023-02-23T01:44:51.303Z,8.30
2023-02-23T01:45:51.304Z,10.80
2023-02-23T01:46:51.280Z,11.60
2023-02-23T01:47:51.279Z,10.80
2023-02-23T01:48:51.283Z,11.30
2023-02-23T01:49:51.245Z,12.10
2023-02-23T01:50:51.243Z,15.10
2023-02-23T01:51:51.232Z,16.10
2023-02-23T01:52:51.215Z,15.90
2023-02-23T01:53:51.213Z,12.60
2023-02-23T01:54:51.208Z,14.40
2023-02-23T01:55:51.189Z,12.90
2023-02-23T01:56:51.181Z,14.70
2023-02-23T01:57:51.174Z,12.80
2023-02-23T01:58:51.208Z,14.00
2023-02-23T01:59:51.161Z,12.40
2023-02-23T02:00:51.184Z,14.90
2023-02-23T02:01:51.180Z,12.80
2023-02-23T02:02:51.111Z,17.70
2023-02-23T02:03:51.118Z,14.80
2023-02-23T02:04:51.126Z,15.50
2023-02-23T02:05:52.311Z,13.30
2023-02-23T02:06:52.246Z,13.40
2023-02-23T02:07:52.232Z,13.30
2023-02-23T02:08:52.271Z,16.30
2023-02-23T02:09:52.235Z,15.20
2023-02-23T02:10:52.237Z,13.10
2023-02-23T02:11:52.233Z,14.80
2023-02-23T02:12:52.206Z,17.50
2023-02-23T02:13:52.203Z,13.70
2023-02-23T02:14:52.190Z,13.00
2023-02-23T02:15:52.194Z,19.20
2023-02-23T02:16:52.169Z,17.20
2023-02-23T02:17:52.156Z,16.80
2023-02-23T02:18:52.158Z,15.60
2023-02-23T02:19:52.143Z,16.60
2023-02-23T02:20:52.088Z,16.40
2023-02-23T02:21:53.107Z,15.70
2023-02-23T02:22:52.096Z,15.80
2023-02-23T02:23:52.141Z,13.80
2023-02-23T02:24:52.111Z,10.20
2023-02-23T02:25:52.059Z,13.90
2023-02-23T02:26:52.091Z,13.80
2023-02-23T02:27:52.066Z,11.00
2023-02-23T02:28:52.047Z,12.20
2023-02-23T02:29:52.037Z,11.50
2023-02-23T02:30:52.057Z,12.10
2023-02-23T02:31:52.052Z,10.70
2023-02-23T02:32:51.985Z,11.90
2023-02-23T02:33:52.025Z,10.50
2023-02-23T02:34:51.975Z,11.50
2023-02-23T02:35:51.990Z,11.50
2023-02-23T02:36:51.999Z,13.00
2023-02-23T02:37:51.986Z,11.40
2023-02-23T02:38:51.939Z,12.80
2023-02-23T02:39:51.952Z,12.20
2023-02-23T02:40:51.938Z,15.20
2023-02-23T02:41:51.919Z,13.60
2023-02-23T02:42:51.935Z,14.30
2023-02-23T02:43:51.926Z,13.70
2023-02-23T02:44:51.901Z,15.30
2023-02-23T02:45:51.901Z,13.90
2023-02-23T02:46:51.902Z,14.70
2023-02-23T02:47:51.887Z,14.60
2023-02-23T02:48:51.862Z,15.30
2023-02-23T02:49:51.865Z,15.10
2023-02-23T02:50:51.822Z,16.20
2023-02-23T02:51:51.816Z,16.50
2023-02-23T02:52:51.791Z,14.40
2023-02-23T02:53:51.827Z,14.10
2023-02-23T02:54:51.811Z,14.90
2023-02-23T02:55:51.766Z,13.70
2023-02-23T02:56:51.769Z,13.60
2023-02-23T02:57:51.753Z,11.70
2023-02-23T02:58:51.725Z,13.60
2023-02-23T02:59:51.769Z,16.70
2023-02-23T03:00:51.745Z,14.10
2023-02-23T03:01:51.749Z,13.40
2023-02-23T03:02:51.706Z,15.10
2023-02-23T03:03:51.714Z,13.10
2023-02-23T03:04:51.713Z,14.70
2023-02-23T03:05:51.655Z,13.30
2023-02-23T03:06:51.681Z,14.00
2023-02-23T03:07:51.675Z,15.60
2023-02-23T03:08:51.672Z,16.80
2023-02-23T03:09:51.653Z,18.10
2023-02-23T03:10:51.637Z,17.60
2023-02-23T03:11:53.948Z,17.40
2023-02-23T03:12:51.618Z,20.20
2023-02-23T03:13:51.607Z,17.80
2023-02-23T03:14:51.608Z,18.20
2023-02-23T03:15:51.617Z,14.20
2023-02-23T03:16:51.566Z,16.30
2023-02-23T03:17:51.537Z,19.00
2023-02-23T03:18:51.629Z,19.20
2023-02-23T03:19:51.537Z,21.80
2023-02-23T03:20:52.588Z,24.00
2023-02-23T03:21:51.533Z,22.10
2023-02-23T03:22:51.512Z,23.00
2023-02-23T03:23:51.504Z,23.40
2023-02-23T03:24:51.515Z,20.20
2023-02-23T03:25:51.482Z,17.20
2023-02-23T03:26:51.465Z,16.80
2023-02-23T03:27:51.493Z,18.20
2023-02-23T03:28:51.467Z,19.00
2023-02-23T03:29:51.451Z,17.30
2023-02-23T03:30:51.499Z,20.90
2023-02-23T03:31:51.530Z,20.30
2023-02-23T03:32:51.452Z,19.40
2023-02-23T03:33:51.428Z,19.70
2023-02-23T03:34:51.403Z,20.20
2023-02-23T03:35:51.401Z,21.10
2023-02-23T03:36:51.355Z,21.50
2023-02-23T03:37:51.365Z,19.50
2023-02-23T03:38:51.382Z,19.00
2023-02-23T03:39:51.348Z,16.80
2023-02-23T03:40:51.338Z,15.30
2023-02-23T03:41:51.319Z,18.50
2023-02-23T03:42:51.325Z,18.60
2023-02-23T03:43:51.307Z,16.30
2023-02-23T03:44:51.344Z,17.30
2023-02-23T03:45:51.359Z,15.10
2023-02-23T03:46:51.273Z,16.90
2023-02-23T03:47:51.268Z,18.80
2023-02-23T03:48:51.264Z,18.30
2023-02-23T03:49:51.239Z,21.20
2023-02-23T03:50:51.261Z,20.50
2023-02-23T03:51:51.217Z,20.30
2023-02-23T03:52:51.204Z,17.30
2023-02-23T03:53:51.196Z,17.10
2023-02-23T03:54:51.208Z,18.40
2023-02-23T03:55:51.206Z,16.90
2023-02-23T03:56:51.164Z,16.60
2023-02-23T03:57:51.170Z,15.30
2023-02-23T03:58:51.135Z,16.10
2023-02-23T03:59:51.124Z,15.30
2023-02-23T04:00:51.149Z,16.20
2023-02-23T04:01:51.151Z,17.60
2023-02-23T04:02:51.106Z,17.20
2023-02-23T04:03:51.221Z,17.30
2023-02-23T04:04:51.083Z,18.40
2023-02-23T04:05:51.090Z,17.10
2023-02-23T04:06:51.103Z,18.60
2023-02-23T04:07:51.049Z,19.70
2023-02-23T04:08:51.072Z,18.00
2023-02-23T04:09:51.044Z,20.70
2023-02-23T04:10:51.028Z,23.50
2023-02-23T04:11:51.027Z,20.20
2023-02-23T04:12:51.027Z,21.80
2023-02-23T04:13:51.034Z,22.10
2023-02-23T04:14:50.980Z,23.90
2023-02-23T04:15:51.013Z,23.20
2023-02-23T04:16:50.991Z,23.00
2023-02-23T04:17:50.953Z,21.70
2023-02-23T04:18:50.978Z,22.10
2023-02-23T04:19:50.937Z,24.00
2023-02-23T04:20:51.021Z,22.90
2023-02-23T04:21:50.927Z,21.10
2023-02-23T04:22:50.872Z,26.20
2023-02-23T04:23:50.894Z,23.90
2023-02-23T04:24:50.875Z,23.50
2023-02-23T04:25:50.929Z,21.70
2023-02-23T04:26:50.895Z,24.30
2023-02-23T04:27:50.874Z,27.30
2023-02-23T04:28:50.823Z,26.60
2023-02-23T04:29:50.807Z,27.30
2023-02-23T04:30:50.867Z,26.80
2023-02-23T04:31:50.911Z,23.50
2023-02-23T04:32:50.859Z,26.30
2023-02-23T04:33:50.777Z,27.00
2023-02-23T04:34:50.798Z,27.40
2023-02-23T04:35:50.790Z,28.20
2023-02-23T04:36:50.766Z,27.90
2023-02-23T04:37:50.756Z,31.50
2023-02-23T04:38:50.737Z,28.10
2023-02-23T04:39:50.724Z,30.00
2023-02-23T04:40:50.750Z,29.10
2023-02-23T04:41:50.727Z,33.90
2023-02-23T04:42:50.712Z,32.70
2023-02-23T04:43:50.675Z,33.40
2023-02-23T04:44:50.687Z,33.40
2023-02-23T04:45:50.720Z,29.40
2023-02-23T04:46:50.664Z,36.60
2023-02-23T04:47:50.651Z,34.90
2023-02-23T04:48:51.645Z,32.10
2023-02-23T04:49:50.637Z,34.40
2023-02-23T04:50:50.662Z,31.80
2023-02-23T04:51:50.642Z,34.40
2023-02-23T04:52:50.637Z,31.80
2023-02-23T04:53:50.608Z,28.40
2023-02-23T04:54:50.600Z,27.30
2023-02-23T04:55:50.594Z,30.40
2023-02-23T04:56:50.600Z,28.10
2023-02-23T04:57:50.551Z,32.10
2023-02-23T04:58:50.561Z,33.10
2023-02-23T04:59:50.567Z,30.90
2023-02-23T05:00:50.547Z,32.00
2023-02-23T05:01:50.533Z,29.90
2023-02-23T05:02:50.882Z,35.50
2023-02-23T05:03:51.526Z,36.60
2023-02-23T05:04:50.517Z,39.60
2023-02-23T05:05:50.507Z,37.00
2023-02-23T05:06:50.495Z,37.00
2023-02-23T05:07:50.481Z,36.90
2023-02-23T05:08:50.464Z,36.00
2023-02-23T05:09:50.479Z,33.60
2023-02-23T05:10:50.447Z,36.30
2023-02-23T05:11:50.476Z,33.50
2023-02-23T05:12:50.481Z,34.30
2023-02-23T05:13:50.413Z,34.70
2023-02-23T05:14:50.422Z,32.80
2023-02-23T05:15:50.470Z,32.00
2023-02-23T05:16:50.459Z,30.20
2023-02-23T05:17:50.362Z,31.10
2023-02-23T05:18:50.374Z,31.20
2023-02-23T05:19:50.348Z,27.30
2023-02-23T05:20:50.348Z,30.40
2023-02-23T05:21:50.406Z,29.20
2023-02-23T05:22:50.314Z,29.50
2023-02-23T05:23:50.325Z,28.40
2023-02-23T05:24:50.315Z,31.20
2023-02-23T05:25:50.291Z,29.00
2023-02-23T05:26:50.305Z,29.20
2023-02-23T05:27:50.278Z,31.50
2023-02-23T05:28:50.286Z,32.40
2023-02-23T05:29:50.245Z,28.30
2023-02-23T05:30:50.304Z,33.80
2023-02-23T05:31:50.342Z,32.60
2023-02-23T05:32:50.262Z,35.90
2023-02-23T05:33:50.275Z,30.50
2023-02-23T05:34:50.200Z,29.10
2023-02-23T05:35:50.203Z,30.80
2023-02-23T05:36:50.187Z,29.80
2023-02-23T05:37:50.183Z,30.20
2023-02-23T05:38:50.186Z,29.60
2023-02-23T05:39:50.143Z,36.40
2023-02-23T05:40:50.146Z,30.20
2023-02-23T05:41:50.150Z,32.40
2023-02-23T05:42:50.213Z,29.50
2023-02-23T05:43:50.131Z,32.50
2023-02-23T05:44:50.088Z,28.50
2023-02-23T05:45:50.078Z,30.40
2023-02-23T05:46:50.151Z,32.20
2023-02-23T05:47:50.168Z,25.90
2023-02-23T05:48:50.070Z,28.50
2023-02-23T05:49:50.078Z,25.70
2023-02-23T05:50:50.094Z,27.30
2023-02-23T05:51:50.045Z,24.90
2023-02-23T05:52:50.081Z,24.30
2023-02-23T05:53:50.032Z,30.60
2023-02-23T05:54:49.985Z,29.30
2023-02-23T05:55:50.000Z,30.00
2023-02-23T05:56:49.968Z,31.30
2023-02-23T05:57:50.008Z,26.00
2023-02-23T05:58:49.977Z,31.30
2023-02-23T05:59:49.927Z,29.80
2023-02-23T06:00:49.939Z,26.60
2023-02-23T06:01:49.963Z,24.00
2023-02-23T06:02:49.974Z,27.60
2023-02-23T06:03:50.089Z,23.30
2023-02-23T06:04:49.920Z,22.80
2023-02-23T06:05:49.902Z,24.40
2023-02-23T06:06:49.897Z,23.30
2023-02-23T06:07:49.895Z,21.60
2023-02-23T06:08:49.881Z,22.10
2023-02-23T06:09:49.877Z,21.60
2023-02-23T06:10:49.881Z,21.90
2023-02-23T06:11:49.851Z,22.80
2023-02-23T06:12:49.862Z,21.40
2023-02-23T06:13:49.946Z,23.80
2023-02-23T06:14:49.972Z,22.60
2023-02-23T06:15:49.844Z,20.50
2023-02-23T06:16:49.788Z,24.40
2023-02-23T06:17:49.810Z,21.40
2023-02-23T06:18:49.785Z,18.60
2023-02-23T06:19:49.755Z,19.40
2023-02-23T06:20:49.747Z,19.40
2023-02-23T06:21:49.728Z,19.80
2023-02-23T06:22:49.727Z,23.20
2023-02-23T06:23:49.743Z,23.20
2023-02-23T06:24:51.481Z,20.70
2023-02-23T06:25:49.732Z,20.90
2023-02-23T06:26:49.690Z,21.40
2023-02-23T06:27:49.695Z,21.90
2023-02-23T06:28:49.653Z,25.80
2023-02-23T06:29:49.671Z,23.80
2023-02-23T06:30:49.698Z,22.90
2023-02-23T06:31:49.734Z,25.80
2023-02-23T06:32:49.637Z,25.00
2023-02-23T06:33:49.631Z,23.70
2023-02-23T06:34:49.643Z,17.50
2023-02-23T06:35:49.630Z,22.80
2023-02-23T06:36:49.587Z,21.50
2023-02-23T06:37:49.600Z,22.30
2023-02-23T06:38:49.610Z,21.70
2023-02-23T06:39:49.585Z,18.20
2023-02-23T06:40:49.555Z,21.80
2023-02-23T06:41:49.550Z,22.80
2023-02-23T06:42:49.549Z,19.50
2023-02-23T06:43:49.510Z,23.90
2023-02-23T06:44:49.545Z,20.10
2023-02-23T06:45:49.530Z,20.90
2023-02-23T06:46:50.628Z,18.40
2023-02-23T06:47:49.520Z,19.10
2023-02-23T06:48:49.462Z,23.50
2023-02-23T06:49:49.460Z,22.00
2023-02-23T06:50:49.464Z,21.90
2023-02-23T06:51:49.439Z,22.20
2023-02-23T06:52:49.457Z,20.30
2023-02-23T06:53:49.421Z,20.30
2023-02-23T06:54:49.383Z,23.90
2023-02-23T06:55:49.394Z,20.80
2023-02-23T06:56:50.029Z,22.30
2023-02-23T06:57:49.506Z,21.40
2023-02-23T06:58:49.342Z,24.70
2023-02-23T06:59:49.360Z,23.60
2023-02-23T07:00:49.360Z,22.30
2023-02-23T07:01:49.355Z,23.10
2023-02-23T07:02:49.372Z,23.70
2023-02-23T07:03:49.326Z,24.70
2023-02-23T07:04:49.345Z,26.30
2023-02-23T07:05:49.273Z,22.80
2023-02-23T07:06:49.279Z,24.10
2023-02-23T07:07:55.315Z,24.90
2023-02-23T07:20:15.192Z,27.00
2023-02-23T07:20:59.471Z,23.90
2023-02-23T07:21:58.786Z,29.00
2023-02-23T07:25:51.772Z,29.90
2023-02-23T07:26:51.547Z,25.70
2023-02-23T07:27:51.596Z,28.10
2023-02-23T07:28:54.091Z,26.70
2023-02-23T07:29:51.528Z,24.90
2023-02-23T07:30:51.520Z,29.30
2023-02-23T07:31:51.535Z,28.20
2023-02-23T07:32:51.503Z,27.80
2023-02-23T07:33:51.491Z,29.20
2023-02-23T07:34:53.742Z,27.60
2023-02-23T07:35:51.503Z,29.60
2023-02-23T07:36:52.908Z,30.60
2023-02-23T07:37:51.490Z,27.80
2023-02-23T07:38:52.264Z,25.60
2023-02-23T07:40:14.110Z,25.70
2023-02-23T07:40:51.533Z,28.70
2023-02-23T07:41:51.430Z,26.00
2023-02-23T07:42:51.435Z,28.10
2023-02-23T07:43:51.433Z,27.00
2023-02-23T07:44:51.372Z,23.80
2023-02-23T07:45:51.418Z,27.70
2023-02-23T07:46:51.548Z,28.00
2023-02-23T07:47:51.369Z,25.50
2023-02-23T07:48:51.359Z,27.40
2023-02-23T07:49:51.338Z,26.30
2023-02-23T07:50:51.329Z,27.60
2023-02-23T07:51:51.306Z,26.90
2023-02-23T07:52:51.388Z,22.50
2023-02-23T07:53:51.297Z,22.60
2023-02-23T07:54:51.284Z,22.70
2023-02-23T07:55:51.274Z,23.00
2023-02-23T07:56:51.245Z,24.20
2023-02-23T07:57:51.315Z,24.00
2023-02-23T07:58:51.333Z,23.90
2023-02-23T07:59:51.229Z,21.80
2023-02-23T08:00:51.237Z,27.10
2023-02-23T08:01:51.251Z,25.60
2023-02-23T08:02:51.328Z,24.20
2023-02-23T08:03:52.323Z,25.00
2023-02-23T08:04:51.218Z,22.50
2023-02-23T08:05:51.161Z,24.20
2023-02-23T08:06:51.176Z,23.90
2023-02-23T08:07:51.152Z,24.60
2023-02-23T08:08:51.167Z,24.00
2023-02-23T08:09:51.183Z,28.50
2023-02-23T08:10:51.108Z,24.00
2023-02-23T08:11:51.132Z,26.40
2023-02-23T08:12:51.171Z,25.10
2023-02-23T08:13:51.107Z,24.10
2023-02-23T08:14:51.225Z,24.70
2023-02-23T08:15:51.048Z,23.70
2023-02-23T08:16:51.754Z,21.80
2023-02-23T08:17:51.005Z,28.70
2023-02-23T08:18:51.158Z,26.90
2023-02-23T08:19:51.010Z,24.20
2023-02-23T08:20:51.060Z,25.20
2023-02-23T08:21:53.826Z,23.10
2023-02-23T08:22:51.154Z,27.90
2023-02-23T08:23:51.876Z,25.90
2023-02-23T08:25:35.186Z,23.80
2023-02-23T08:25:50.999Z,24.70
2023-02-23T08:28:24.541Z,25.70
2023-02-23T08:29:24.553Z,27.60
2023-02-23T08:30:24.649Z,27.60
2023-02-23T08:31:25.474Z,27.80
2023-02-23T08:32:29.274Z,25.00
2023-02-23T08:33:24.566Z,26.20
2023-02-23T08:36:00.369Z,28.00
2023-02-23T08:37:01.520Z,29.10
2023-02-23T08:39:50.534Z,28.40
2023-02-23T08:40:32.538Z,32.50
2023-02-23T08:41:32.470Z,32.20
2023-02-23T08:47:56.440Z,33.40
2023-02-23T08:48:56.357Z,32.20
2023-02-23T08:49:56.338Z,29.70
2023-02-23T08:50:56.370Z,29.30
2023-02-23T08:51:56.862Z,27.70
2023-02-23T08:52:56.345Z,28.60
2023-02-23T08:53:56.353Z,27.90
2023-02-23T08:54:56.308Z,27.60
2023-02-23T08:55:56.331Z,27.90
2023-02-23T08:56:56.343Z,29.40
2023-02-23T08:57:56.253Z,26.50
2023-02-23T08:58:56.728Z,32.40
2023-02-23T09:19:56.670Z,30.90
2023-02-23T09:20:55.644Z,30.80
2023-02-23T09:21:57.292Z,29.60
2023-02-23T09:23:24.666Z,29.10
2023-02-23T09:23:55.648Z,27.30
2023-02-23T09:24:55.590Z,29.40
2023-02-23T09:25:55.607Z,30.20
2023-02-23T09:26:55.649Z,26.90
2023-02-23T09:27:55.581Z,28.80
2023-02-23T09:28:55.571Z,28.30
2023-02-23T09:29:55.545Z,29.70
2023-02-23T09:30:55.582Z,28.70
2023-02-23T09:31:55.588Z,30.40
2023-02-23T09:32:55.481Z,30.20
2023-02-23T09:33:55.522Z,29.50
2023-02-23T09:34:55.508Z,34.10
2023-02-23T09:35:55.484Z,30.70
2023-02-23T09:36:55.499Z,29.60
2023-02-23T09:37:55.496Z,31.40
2023-02-23T09:38:55.560Z,31.40
2023-02-23T09:39:57.682Z,30.30
2023-02-23T09:40:55.756Z,30.50
2023-02-23T09:41:55.401Z,27.30
2023-02-23T09:42:55.387Z,33.70
2023-02-23T09:43:55.427Z,31.40
2023-02-23T09:44:55.421Z,32.50
2023-02-23T09:45:55.367Z,33.20
2023-02-23T09:46:55.328Z,31.30
2023-02-23T09:47:55.317Z,33.40
2023-02-23T09:48:55.308Z,31.70
2023-02-23T09:49:55.286Z,31.70
2023-02-23T09:50:55.325Z,33.10
2023-02-23T09:51:55.284Z,34.70
2023-02-23T09:52:55.476Z,34.70
2023-02-23T09:53:55.286Z,34.00
2023-02-23T09:54:55.385Z,39.20
2023-02-23T09:55:55.224Z,39.80
2023-02-23T09:56:55.255Z,37.70
2023-02-23T09:57:55.220Z,38.00
2023-02-23T09:58:55.210Z,37.20
2023-02-23T09:59:55.185Z,36.90
2023-02-23T10:00:55.182Z,35.50
2023-02-23T10:01:55.305Z,39.20
2023-02-23T10:02:55.166Z,38.70
2023-02-23T10:03:55.158Z,39.40
2023-02-23T10:04:57.368Z,36.70
2023-02-23T10:06:16.274Z,37.90
2023-02-23T10:06:58.487Z,35.50
2023-02-23T10:07:55.139Z,41.30
2023-02-23T10:08:55.104Z,40.50
2023-02-23T10:09:55.099Z,40.00
2023-02-23T10:10:55.091Z,37.50
2023-02-23T10:11:55.082Z,39.90
2023-02-23T10:12:55.084Z,41.30
2023-02-23T10:13:55.055Z,40.50
2023-02-23T10:14:55.078Z,38.10
2023-02-23T10:15:55.030Z,39.90
2023-02-23T10:16:55.008Z,37.60
2023-02-23T10:17:54.998Z,36.20
2023-02-23T10:18:55.031Z,38.30
2023-02-23T10:19:54.990Z,34.50
2023-02-23T10:20:55.017Z,37.90
2023-02-23T10:21:54.979Z,39.10
2023-02-23T10:23:06.697Z,37.20
2023-02-23T10:23:55.977Z,39.30
2023-02-23T10:24:54.933Z,40.70
2023-02-23T10:25:54.928Z,41.10
2023-02-23T10:26:54.915Z,41.20
2023-02-23T10:28:06.339Z,38.40
2023-02-23T10:28:55.931Z,35.60
2023-02-23T10:29:54.896Z,39.30
2023-02-23T10:30:55.028Z,37.80
2023-02-23T10:31:54.918Z,38.90
2023-02-23T10:32:54.854Z,38.70
2023-02-23T10:33:54.835Z,37.70
2023-02-23T10:34:54.909Z,38.80
2023-02-23T10:36:07.425Z,42.50
2023-02-23T10:36:55.803Z,41.00
2023-02-23T10:37:54.789Z,36.00
2023-02-23T10:38:54.796Z,41.80
2023-02-23T10:39:54.794Z,40.30
2023-02-23T10:40:54.788Z,39.30
2023-02-23T10:41:59.904Z,40.40
2023-02-23T10:43:06.207Z,40.60
2023-02-23T10:43:57.129Z,40.80
2023-02-23T10:44:54.762Z,42.20
2023-02-23T10:45:55.837Z,40.30
2023-02-23T10:46:55.734Z,41.20
2023-02-23T10:47:54.696Z,38.70
2023-02-23T10:48:54.674Z,41.70
2023-02-23T10:49:54.715Z,36.70
2023-02-23T10:50:54.651Z,37.80
2023-02-23T10:51:54.644Z,37.60
2023-02-23T10:55:24.443Z,38.70
2023-02-23T10:55:54.752Z,39.70
2023-02-23T10:56:55.252Z,40.90
2023-02-23T10:57:54.709Z,44.20
2023-02-23T11:05:46.399Z,42.50
2023-02-23T11:06:31.227Z,40.10
2023-02-23T11:07:43.548Z,42.20
2023-02-23T11:08:52.655Z,42.80
2023-02-23T11:09:43.330Z,46.10
2023-02-23T11:11:01.104Z,44.50
2023-02-23T11:11:31.521Z,43.70
2023-02-23T11:12:28.590Z,42.30
2023-02-23T11:13:28.636Z,42.60
2023-02-23T11:14:29.284Z,41.70
2023-02-23T11:21:43.556Z,41.20
2023-02-23T11:22:18.516Z,46.40
2023-02-23T11:23:14.775Z,43.00
2023-02-23T11:27:05.030Z,39.80
2023-02-23T11:27:37.657Z,39.80
2023-02-23T11:28:37.397Z,43.10
2023-02-23T11:29:37.439Z,41.10
2023-02-23T11:32:10.655Z,44.10
2023-02-23T11:33:03.381Z,45.00
2023-02-23T11:34:04.332Z,44.50
2023-02-23T11:35:05.059Z,43.30
2023-02-23T11:36:27.937Z,41.30
2023-02-23T11:37:03.393Z,40.80
2023-02-23T11:38:05.406Z,40.50
2023-02-23T11:39:03.392Z,41.70
2023-02-23T11:40:03.357Z,40.90
2023-02-23T11:41:04.000Z,40.30
2023-02-23T11:42:03.306Z,43.20
2023-02-23T11:43:03.417Z,43.80
2023-02-23T11:44:05.817Z,42.30
2023-02-23T11:45:03.312Z,44.30
2023-02-23T11:46:03.310Z,42.90
2023-02-23T11:47:03.286Z,43.50
2023-02-23T11:48:03.245Z,42.30
2023-02-23T11:49:03.268Z,41.10
2023-02-23T11:50:03.468Z,41.00
2023-02-23T11:51:03.217Z,39.20
2023-02-23T11:52:03.221Z,42.30
2023-02-23T11:53:03.181Z,39.50
2023-02-23T11:54:05.284Z,41.20
2023-02-23T11:55:03.194Z,39.00
2023-02-23T11:56:03.164Z,39.20
2023-02-23T11:57:03.163Z,39.20
2023-02-23T11:58:03.135Z,38.90
2023-02-23T11:59:03.145Z,40.20
2023-02-23T12:00:03.117Z,39.30
2023-02-23T12:01:03.119Z,37.30
2023-02-23T12:02:03.118Z,40.30
2023-02-23T12:03:03.182Z,38.70
2023-02-23T12:04:03.090Z,43.30
2023-02-23T12:05:03.122Z,40.60
2023-02-23T12:06:03.071Z,37.60
2023-02-23T12:07:03.052Z,39.00
2023-02-23T12:08:03.113Z,41.70
2023-02-23T12:09:03.051Z,49.40
2023-02-23T12:10:03.036Z,38.00
2023-02-23T12:11:03.055Z,38.10
2023-02-23T12:12:03.017Z,40.60
2023-02-23T12:13:03.003Z,39.90
2023-02-23T12:14:04.187Z,40.90
2023-02-23T12:15:04.188Z,43.20
2023-02-23T12:16:04.225Z,39.90
2023-02-23T12:17:05.379Z,39.20
2023-02-23T12:18:05.169Z,41.10
2023-02-23T12:19:04.122Z,39.30
2023-02-23T12:20:04.126Z,40.50
2023-02-23T12:21:04.137Z,41.10
2023-02-23T12:22:04.100Z,39.20
2023-02-23T12:23:04.116Z,33.20
2023-02-23T12:24:04.096Z,40.60
2023-02-23T12:25:04.060Z,34.60
2023-02-23T12:26:04.085Z,38.50
2023-02-23T12:27:04.126Z,36.40
2023-02-23T12:28:17.879Z,36.60
2023-02-23T12:29:06.490Z,35.70
2023-02-23T12:30:04.848Z,34.80
2023-02-23T12:31:04.213Z,33.20
2023-02-23T12:32:04.159Z,33.40
2023-02-23T12:33:04.258Z,34.30
2023-02-23T12:34:04.173Z,37.10
2023-02-23T12:35:04.056Z,34.20
2023-02-23T12:36:04.089Z,31.20
2023-02-23T12:37:04.004Z,32.20
2023-02-23T12:38:04.017Z,30.60
2023-02-23T12:39:03.931Z,30.90
2023-02-23T12:40:04.431Z,27.20
2023-02-23T12:41:03.933Z,27.70
2023-02-23T12:42:03.994Z,33.50
2023-02-23T12:43:04.045Z,31.10
2023-02-23T12:44:04.013Z,28.90
2023-02-23T12:45:04.074Z,30.80
2023-02-23T12:46:03.968Z,33.20
2023-02-23T12:47:04.001Z,28.40
2023-02-23T12:48:03.925Z,26.80
2023-02-23T12:49:03.860Z,29.20
2023-02-23T12:50:03.879Z,28.50
2023-02-23T12:51:04.313Z,26.40
2023-02-23T12:52:03.929Z,25.80
2023-02-23T12:53:03.796Z,27.40
2023-02-23T12:54:03.842Z,27.40
2023-02-23T12:55:03.809Z,26.50
2023-02-23T12:56:03.780Z,25.80
2023-02-23T12:57:04.688Z,27.20
2023-02-23T12:58:04.778Z,29.10
2023-02-23T12:59:03.777Z,29.90
2023-02-23T13:00:03.777Z,29.10
2023-02-23T13:01:03.869Z,28.80
2023-02-23T13:02:03.803Z,29.10
2023-02-23T13:03:03.796Z,27.00
2023-02-23T13:04:03.714Z,29.00
2023-02-23T13:05:03.767Z,28.80
2023-02-23T13:06:04.474Z,26.30
2023-02-23T13:07:05.284Z,25.00
2023-02-23T13:08:12.883Z,25.10
2023-02-23T13:09:05.722Z,25.90
2023-02-23T13:10:03.797Z,24.60
2023-02-23T13:11:03.754Z,25.70
2023-02-23T13:12:03.680Z,28.60
2023-02-23T13:13:05.319Z,28.60
2023-02-23T13:14:04.694Z,27.30
2023-02-23T13:15:03.668Z,27.00
2023-02-23T13:16:03.645Z,31.90
2023-02-23T13:17:03.700Z,28.90
2023-02-23T13:18:03.689Z,30.40
2023-02-23T13:19:04.953Z,29.90
2023-02-23T13:20:05.661Z,32.00
2023-02-23T13:21:03.638Z,31.60
2023-02-23T13:22:03.640Z,32.10
2023-02-23T13:23:03.713Z,27.70
2023-02-23T13:24:03.595Z,30.90
2023-02-23T13:25:05.181Z,28.90
2023-02-23T13:26:04.609Z,27.40
2023-02-23T13:27:03.655Z,27.30
2023-02-23T13:28:03.568Z,29.10
2023-02-23T13:29:03.543Z,29.20
2023-02-23T13:30:03.549Z,30.30
2023-02-23T13:31:05.907Z,26.40
2023-02-23T13:32:04.678Z,27.30
2023-02-23T13:33:03.488Z,24.80
2023-02-23T13:34:03.585Z,25.20
2023-02-23T13:35:05.941Z,23.50
2023-02-23T13:36:03.642Z,22.10
2023-02-23T13:37:03.608Z,23.60
2023-02-23T13:38:03.708Z,22.50
2023-02-23T13:39:10.297Z,23.00
2023-02-23T13:41:08.786Z,24.20
2023-02-23T13:41:10.584Z,21.20
2023-02-23T13:42:59.469Z,21.00
2023-02-23T13:43:11.923Z,22.40
2023-02-23T13:54:12.765Z,18.50
2023-02-23T13:54:36.905Z,21.90
2023-02-23T13:55:48.260Z,19.70
2023-02-23T13:56:39.329Z,20.10
2023-02-23T13:57:36.876Z,16.90
2023-02-23T13:58:36.881Z,20.00
2023-02-23T13:59:36.908Z,20.90
2023-02-23T14:00:36.817Z,19.80
2023-02-23T14:01:36.896Z,16.90
2023-02-23T14:02:36.843Z,16.50
2023-02-23T14:03:36.823Z,15.50
2023-02-23T14:04:36.785Z,16.80
2023-02-23T14:05:36.767Z,14.60
2023-02-23T14:06:36.785Z,17.40
2023-02-23T14:07:36.761Z,14.70
2023-02-23T14:08:36.763Z,12.30